Aérodrome :
LOGIN :

S'inscrire | Disclaimer

   EN    FR    IT 

 










Légende :    VFR   VFR Marginal   IFR   IFR Intensif   IFR Très Intensif
Visi : 
Plafond : 
>= 8 km
>= 3000ft
5 à 8 km
1000 à 3000 ft
1500m à 5 km
500 à 1000 ft
800 à 1500m
200 à 500 ft
< 800m
< 200 ft
Symboles :   Orages  Brouillard  Fortes neiges  Fortes précipitations  Vent > 20 kt
SIGMETs :   Divers  Orages  Givrage  Turbulence  Onde Orograph.  Cendres Volcan.







- Altitude de l'aérodrome : 39 ft
- Code IATA : ANR


EBAW - Anvers / Antwerpen Deurne

DERNIER METAR :
  • 240120Z AUTO 21010KT 9999 // BKN008/// OVC010/// 12/10 Q1018

METARs EXPIRÉS :
  • 240050Z AUTO 23012KT 9999 // FEW006/// BKN007/// OVC009/// 12/10 Q1018
  • 240020Z AUTO 22011KT 9999 // OVC010/// 12/10 Q1018
  • 232350Z AUTO 23011KT 9999 // BKN010/// OVC012/// 12/10 Q1018
  • 232320Z AUTO 23012KT 200V260 9999 // OVC011/// 12/10 Q1018

TAF TAF EBAW
Valide du 24 à 00h jusqu'au 24 à 09h UTC


232315Z 2400/2409 22010KT 8000 -RADZ SCT007 BKN012
TEMPO 2400/2406 4000 DZRA BKN007
BECMG 2406/2408 SCT010 BKN015
BECMG 2408/2409 20017G30KT
Pas de NOTAMs connus pour ce terrain.



MET'MAP, la Météo Aéronautique d'un coup d'oeil ! - Copyright ORBIFLY Décembre 2007 - Disclaimer

ORBIFLY MET'MAP TEAM :

Programmation & Développement : Alexandra Zaïnal
Conception & Développement : Baudouin d'Aumeries
Co-Programmation & Développement : Marc-Olivier Méhu
Soutien technique & logistique : Manuel Goepfert

Contact : metmap@orbifly.com




SOURCES & CREDITS :

   NOAA